sensor_id;sensor_type;location;lat;lon;timestamp;P1;durP1;ratioP1;P2;durP2;ratioP2
14268;SDS011;7218;51.480;7.006;2022-09-17T00:00:47;7.78;;;2.53;;
14268;SDS011;7218;51.480;7.006;2022-09-17T00:03:14;8.57;;;2.28;;
14268;SDS011;7218;51.480;7.006;2022-09-17T00:05:41;6.95;;;2.53;;
14268;SDS011;7218;51.480;7.006;2022-09-17T00:08:10;12.57;;;2.53;;
14268;SDS011;7218;51.480;7.006;2022-09-17T00:10:39;7.78;;;2.53;;
14268;SDS011;7218;51.480;7.006;2022-09-17T00:13:07;9.70;;;2.38;;
14268;SDS011;7218;51.480;7.006;2022-09-17T00:15:38;8.77;;;2.60;;
14268;SDS011;7218;51.480;7.006;2022-09-17T00:18:06;12.68;;;2.90;;
14268;SDS011;7218;51.480;7.006;2022-09-17T00:20:36;14.52;;;2.95;;
14268;SDS011;7218;51.480;7.006;2022-09-17T00:23:03;8.77;;;2.53;;
14268;SDS011;7218;51.480;7.006;2022-09-17T00:25:30;9.65;;;3.00;;
14268;SDS011;7218;51.480;7.006;2022-09-17T00:27:56;10.07;;;3.00;;
14268;SDS011;7218;51.480;7.006;2022-09-17T00:30:23;11.65;;;2.55;;
14268;SDS011;7218;51.480;7.006;2022-09-17T00:32:49;11.32;;;2.40;;
14268;SDS011;7218;51.480;7.006;2022-09-17T00:35:18;9.45;;;2.92;;
14268;SDS011;7218;51.480;7.006;2022-09-17T00:37:44;6.72;;;2.50;;
14268;SDS011;7218;51.480;7.006;2022-09-17T00:40:11;11.98;;;2.80;;
14268;SDS011;7218;51.480;7.006;2022-09-17T00:42:37;14.60;;;3.10;;
14268;SDS011;7218;51.480;7.006;2022-09-17T00:45:04;10.82;;;2.60;;
14268;SDS011;7218;51.480;7.006;2022-09-17T00:47:32;8.38;;;2.63;;
14268;SDS011;7218;51.480;7.006;2022-09-17T00:50:02;10.48;;;2.90;;
14268;SDS011;7218;51.480;7.006;2022-09-17T00:52:33;11.30;;;3.08;;
14268;SDS011;7218;51.480;7.006;2022-09-17T00:55:08;11.25;;;2.65;;
14268;SDS011;7218;51.480;7.006;2022-09-17T00:57:38;10.65;;;3.10;;
14268;SDS011;7218;51.480;7.006;2022-09-17T01:00:06;10.68;;;3.40;;
14268;SDS011;7218;51.480;7.006;2022-09-17T01:02:33;7.20;;;2.83;;
14268;SDS011;7218;51.480;7.006;2022-09-17T01:05:00;10.30;;;3.00;;
14268;SDS011;7218;51.480;7.006;2022-09-17T01:07:31;11.63;;;3.25;;
14268;SDS011;7218;51.480;7.006;2022-09-17T01:10:16;12.82;;;3.45;;
14268;SDS011;7218;51.480;7.006;2022-09-17T01:12:54;10.95;;;3.28;;
14268;SDS011;7218;51.480;7.006;2022-09-17T01:15:31;10.80;;;3.45;;
14268;SDS011;7218;51.480;7.006;2022-09-17T01:18:09;11.75;;;3.78;;
14268;SDS011;7218;51.480;7.006;2022-09-17T01:23:55;11.20;;;3.20;;
14268;SDS011;7218;51.480;7.006;2022-09-17T01:26:41;13.02;;;3.80;;
14268;SDS011;7218;51.480;7.006;2022-09-17T01:29:23;10.95;;;2.75;;
14268;SDS011;7218;51.480;7.006;2022-09-17T01:32:03;17.77;;;3.50;;
14268;SDS011;7218;51.480;7.006;2022-09-17T01:34:36;12.93;;;3.38;;
14268;SDS011;7218;51.480;7.006;2022-09-17T01:37:11;8.82;;;2.92;;
14268;SDS011;7218;51.480;7.006;2022-09-17T01:39:41;11.55;;;3.08;;
14268;SDS011;7218;51.480;7.006;2022-09-17T01:42:14;10.23;;;3.10;;
14268;SDS011;7218;51.480;7.006;2022-09-17T01:44:50;13.18;;;3.42;;
14268;SDS011;7218;51.480;7.006;2022-09-17T01:47:25;10.75;;;2.90;;
14268;SDS011;7218;51.480;7.006;2022-09-17T01:49:56;8.70;;;2.90;;
14268;SDS011;7218;51.480;7.006;2022-09-17T01:52:26;9.85;;;3.47;;
14268;SDS011;7218;51.480;7.006;2022-09-17T01:54:56;12.63;;;3.25;;
14268;SDS011;7218;51.480;7.006;2022-09-17T01:57:28;11.88;;;2.90;;
14268;SDS011;7218;51.480;7.006;2022-09-17T02:00:00;11.77;;;3.20;;
14268;SDS011;7218;51.480;7.006;2022-09-17T02:02:31;10.85;;;3.00;;
14268;SDS011;7218;51.480;7.006;2022-09-17T02:05:04;10.52;;;3.28;;
14268;SDS011;7218;51.480;7.006;2022-09-17T02:07:35;12.80;;;3.85;;
14268;SDS011;7218;51.480;7.006;2022-09-17T02:10:09;13.18;;;3.42;;
14268;SDS011;7218;51.480;7.006;2022-09-17T02:12:37;11.93;;;3.30;;
14268;SDS011;7218;51.480;7.006;2022-09-17T02:15:08;14.23;;;3.58;;
14268;SDS011;7218;51.480;7.006;2022-09-17T02:17:41;11.57;;;3.50;;
14268;SDS011;7218;51.480;7.006;2022-09-17T02:20:11;11.70;;;3.38;;
14268;SDS011;7218;51.480;7.006;2022-09-17T02:22:40;11.73;;;3.17;;
14268;SDS011;7218;51.480;7.006;2022-09-17T02:25:10;11.15;;;3.53;;
14268;SDS011;7218;51.480;7.006;2022-09-17T02:27:46;11.82;;;3.60;;
14268;SDS011;7218;51.480;7.006;2022-09-17T02:30:17;12.15;;;3.78;;
14268;SDS011;7218;51.480;7.006;2022-09-17T02:32:45;12.07;;;3.40;;
14268;SDS011;7218;51.480;7.006;2022-09-17T02:35:13;13.32;;;3.72;;
14268;SDS011;7218;51.480;7.006;2022-09-17T02:37:40;18.25;;;3.65;;
14268;SDS011;7218;51.480;7.006;2022-09-17T02:40:07;12.23;;;3.20;;
14268;SDS011;7218;51.480;7.006;2022-09-17T02:42:37;10.55;;;3.30;;
14268;SDS011;7218;51.480;7.006;2022-09-17T02:45:18;13.25;;;3.83;;
14268;SDS011;7218;51.480;7.006;2022-09-17T02:48:03;11.43;;;3.60;;
14268;SDS011;7218;51.480;7.006;2022-09-17T02:50:41;11.02;;;3.08;;
14268;SDS011;7218;51.480;7.006;2022-09-17T02:53:30;14.20;;;4.03;;
14268;SDS011;7218;51.480;7.006;2022-09-17T02:56:10;12.52;;;3.58;;
14268;SDS011;7218;51.480;7.006;2022-09-17T02:58:46;12.35;;;3.63;;
14268;SDS011;7218;51.480;7.006;2022-09-17T03:01:19;12.40;;;3.42;;
14268;SDS011;7218;51.480;7.006;2022-09-17T03:03:52;14.18;;;3.55;;
14268;SDS011;7218;51.480;7.006;2022-09-17T03:06:20;14.10;;;3.65;;
14268;SDS011;7218;51.480;7.006;2022-09-17T03:08:47;14.75;;;3.80;;
14268;SDS011;7218;51.480;7.006;2022-09-17T03:11:14;15.02;;;4.03;;
14268;SDS011;7218;51.480;7.006;2022-09-17T03:13:40;14.27;;;3.88;;
14268;SDS011;7218;51.480;7.006;2022-09-17T03:16:07;14.63;;;3.63;;
14268;SDS011;7218;51.480;7.006;2022-09-17T03:18:34;11.68;;;3.08;;
14268;SDS011;7218;51.480;7.006;2022-09-17T03:21:02;15.05;;;2.90;;
14268;SDS011;7218;51.480;7.006;2022-09-17T03:23:28;11.50;;;2.90;;
14268;SDS011;7218;51.480;7.006;2022-09-17T03:25:55;13.13;;;3.17;;
14268;SDS011;7218;51.480;7.006;2022-09-17T03:28:21;12.27;;;2.83;;
14268;SDS011;7218;51.480;7.006;2022-09-17T03:30:49;14.73;;;2.70;;
14268;SDS011;7218;51.480;7.006;2022-09-17T03:33:16;15.75;;;3.08;;
14268;SDS011;7218;51.480;7.006;2022-09-17T03:35:43;11.40;;;2.60;;
14268;SDS011;7218;51.480;7.006;2022-09-17T03:38:11;10.43;;;2.50;;
14268;SDS011;7218;51.480;7.006;2022-09-17T03:40:39;11.57;;;2.50;;
14268;SDS011;7218;51.480;7.006;2022-09-17T03:43:05;9.43;;;2.53;;
14268;SDS011;7218;51.480;7.006;2022-09-17T03:45:32;12.95;;;2.47;;
14268;SDS011;7218;51.480;7.006;2022-09-17T03:47:58;9.50;;;2.30;;
14268;SDS011;7218;51.480;7.006;2022-09-17T03:50:25;12.48;;;2.35;;
14268;SDS011;7218;51.480;7.006;2022-09-17T03:52:51;15.07;;;2.40;;
14268;SDS011;7218;51.480;7.006;2022-09-17T03:55:19;13.57;;;2.70;;
14268;SDS011;7218;51.480;7.006;2022-09-17T03:57:46;10.32;;;2.03;;
14268;SDS011;7218;51.480;7.006;2022-09-17T04:00:13;8.55;;;2.08;;
14268;SDS011;7218;51.480;7.006;2022-09-17T04:02:41;8.90;;;2.22;;
14268;SDS011;7218;51.480;7.006;2022-09-17T04:05:08;7.63;;;1.88;;
14268;SDS011;7218;51.480;7.006;2022-09-17T04:07:34;7.65;;;2.00;;
14268;SDS011;7218;51.480;7.006;2022-09-17T04:10:01;7.40;;;1.90;;
14268;SDS011;7218;51.480;7.006;2022-09-17T04:12:30;9.10;;;1.85;;
14268;SDS011;7218;51.480;7.006;2022-09-17T04:14:57;7.68;;;2.00;;
14268;SDS011;7218;51.480;7.006;2022-09-17T04:17:23;8.93;;;2.17;;
14268;SDS011;7218;51.480;7.006;2022-09-17T04:19:50;10.70;;;2.17;;
14268;SDS011;7218;51.480;7.006;2022-09-17T04:22:17;5.63;;;2.00;;
14268;SDS011;7218;51.480;7.006;2022-09-17T04:24:44;9.75;;;2.00;;
14268;SDS011;7218;51.480;7.006;2022-09-17T04:27:10;7.97;;;1.90;;
14268;SDS011;7218;51.480;7.006;2022-09-17T04:29:38;9.27;;;1.80;;
14268;SDS011;7218;51.480;7.006;2022-09-17T04:32:05;9.65;;;1.95;;
14268;SDS011;7218;51.480;7.006;2022-09-17T04:34:31;7.75;;;2.08;;
14268;SDS011;7218;51.480;7.006;2022-09-17T04:36:58;9.35;;;2.10;;
14268;SDS011;7218;51.480;7.006;2022-09-17T04:39:24;10.05;;;2.15;;
14268;SDS011;7218;51.480;7.006;2022-09-17T04:41:51;9.27;;;2.30;;
14268;SDS011;7218;51.480;7.006;2022-09-17T04:44:23;14.50;;;2.22;;
14268;SDS011;7218;51.480;7.006;2022-09-17T04:46:51;14.85;;;2.95;;
14268;SDS011;7218;51.480;7.006;2022-09-17T04:49:17;8.82;;;2.40;;
14268;SDS011;7218;51.480;7.006;2022-09-17T04:51:43;8.02;;;2.10;;
14268;SDS011;7218;51.480;7.006;2022-09-17T04:54:10;9.63;;;1.80;;
14268;SDS011;7218;51.480;7.006;2022-09-17T04:56:36;8.15;;;1.88;;
14268;SDS011;7218;51.480;7.006;2022-09-17T04:59:03;7.25;;;2.20;;
14268;SDS011;7218;51.480;7.006;2022-09-17T05:01:29;8.68;;;1.77;;
14268;SDS011;7218;51.480;7.006;2022-09-17T05:03:57;7.90;;;2.25;;
14268;SDS011;7218;51.480;7.006;2022-09-17T05:06:24;5.78;;;1.70;;
14268;SDS011;7218;51.480;7.006;2022-09-17T05:08:50;7.93;;;1.80;;
14268;SDS011;7218;51.480;7.006;2022-09-17T05:11:17;10.63;;;2.22;;
14268;SDS011;7218;51.480;7.006;2022-09-17T05:13:43;8.07;;;1.95;;
14268;SDS011;7218;51.480;7.006;2022-09-17T05:16:10;8.75;;;1.75;;
14268;SDS011;7218;51.480;7.006;2022-09-17T05:18:36;7.38;;;1.58;;
14268;SDS011;7218;51.480;7.006;2022-09-17T05:21:04;7.20;;;1.90;;
14268;SDS011;7218;51.480;7.006;2022-09-17T05:23:31;8.63;;;1.92;;
14268;SDS011;7218;51.480;7.006;2022-09-17T05:25:57;10.27;;;2.20;;
14268;SDS011;7218;51.480;7.006;2022-09-17T05:28:25;11.45;;;2.28;;
14268;SDS011;7218;51.480;7.006;2022-09-17T05:30:51;8.40;;;2.15;;
14268;SDS011;7218;51.480;7.006;2022-09-17T05:33:18;7.00;;;1.90;;
14268;SDS011;7218;51.480;7.006;2022-09-17T05:35:44;12.65;;;2.47;;
14268;SDS011;7218;51.480;7.006;2022-09-17T05:38:12;9.20;;;2.00;;
14268;SDS011;7218;51.480;7.006;2022-09-17T05:40:39;8.48;;;2.45;;
14268;SDS011;7218;51.480;7.006;2022-09-17T05:43:05;13.13;;;2.80;;
14268;SDS011;7218;51.480;7.006;2022-09-17T05:45:32;10.32;;;2.67;;
14268;SDS011;7218;51.480;7.006;2022-09-17T05:48:00;9.50;;;2.33;;
14268;SDS011;7218;51.480;7.006;2022-09-17T05:50:28;10.35;;;2.55;;
14268;SDS011;7218;51.480;7.006;2022-09-17T05:52:55;13.20;;;3.05;;
14268;SDS011;7218;51.480;7.006;2022-09-17T05:55:23;11.10;;;2.35;;
14268;SDS011;7218;51.480;7.006;2022-09-17T05:57:51;6.90;;;2.33;;
14268;SDS011;7218;51.480;7.006;2022-09-17T06:00:18;12.57;;;2.53;;
14268;SDS011;7218;51.480;7.006;2022-09-17T06:02:44;11.45;;;2.50;;
14268;SDS011;7218;51.480;7.006;2022-09-17T06:05:11;9.30;;;2.30;;
14268;SDS011;7218;51.480;7.006;2022-09-17T06:07:37;13.73;;;2.65;;
14268;SDS011;7218;51.480;7.006;2022-09-17T06:10:06;7.47;;;2.45;;
14268;SDS011;7218;51.480;7.006;2022-09-17T06:12:34;7.93;;;2.53;;
14268;SDS011;7218;51.480;7.006;2022-09-17T06:15:01;9.65;;;2.30;;
14268;SDS011;7218;51.480;7.006;2022-09-17T06:17:28;10.85;;;2.60;;
14268;SDS011;7218;51.480;7.006;2022-09-17T06:19:57;8.60;;;2.95;;
14268;SDS011;7218;51.480;7.006;2022-09-17T06:22:24;10.13;;;2.85;;
14268;SDS011;7218;51.480;7.006;2022-09-17T06:24:50;12.25;;;3.58;;
14268;SDS011;7218;51.480;7.006;2022-09-17T06:27:17;12.68;;;3.67;;
14268;SDS011;7218;51.480;7.006;2022-09-17T06:29:45;8.95;;;2.90;;
14268;SDS011;7218;51.480;7.006;2022-09-17T06:32:11;12.45;;;3.60;;
14268;SDS011;7218;51.480;7.006;2022-09-17T06:34:40;8.15;;;2.80;;
14268;SDS011;7218;51.480;7.006;2022-09-17T06:37:07;10.68;;;3.28;;
14268;SDS011;7218;51.480;7.006;2022-09-17T06:39:34;11.02;;;3.10;;
14268;SDS011;7218;51.480;7.006;2022-09-17T06:42:00;12.68;;;2.90;;
14268;SDS011;7218;51.480;7.006;2022-09-17T06:44:27;8.75;;;2.35;;
14268;SDS011;7218;51.480;7.006;2022-09-17T06:46:55;12.23;;;2.88;;
14268;SDS011;7218;51.480;7.006;2022-09-17T06:49:22;9.85;;;2.75;;
14268;SDS011;7218;51.480;7.006;2022-09-17T06:51:48;8.98;;;2.50;;
14268;SDS011;7218;51.480;7.006;2022-09-17T06:54:15;10.68;;;2.20;;
14268;SDS011;7218;51.480;7.006;2022-09-17T06:56:42;11.05;;;2.50;;
14268;SDS011;7218;51.480;7.006;2022-09-17T06:59:11;11.32;;;2.88;;
14268;SDS011;7218;51.480;7.006;2022-09-17T07:01:38;10.57;;;2.65;;
14268;SDS011;7218;51.480;7.006;2022-09-17T07:04:06;10.30;;;2.97;;
14268;SDS011;7218;51.480;7.006;2022-09-17T07:06:33;13.02;;;3.00;;
14268;SDS011;7218;51.480;7.006;2022-09-17T07:08:59;11.38;;;3.00;;
14268;SDS011;7218;51.480;7.006;2022-09-17T07:11:28;10.40;;;2.63;;
14268;SDS011;7218;51.480;7.006;2022-09-17T07:13:55;14.25;;;2.85;;
14268;SDS011;7218;51.480;7.006;2022-09-17T07:16:21;11.63;;;2.60;;
14268;SDS011;7218;51.480;7.006;2022-09-17T07:18:48;11.75;;;2.58;;
14268;SDS011;7218;51.480;7.006;2022-09-17T07:21:16;12.32;;;3.05;;
14268;SDS011;7218;51.480;7.006;2022-09-17T07:23:44;11.82;;;2.50;;
14268;SDS011;7218;51.480;7.006;2022-09-17T07:26:12;12.82;;;2.70;;
14268;SDS011;7218;51.480;7.006;2022-09-17T07:28:39;12.38;;;2.72;;
14268;SDS011;7218;51.480;7.006;2022-09-17T07:31:07;9.38;;;2.78;;
14268;SDS011;7218;51.480;7.006;2022-09-17T07:33:35;10.05;;;2.50;;
14268;SDS011;7218;51.480;7.006;2022-09-17T07:36:02;8.45;;;2.72;;
14268;SDS011;7218;51.480;7.006;2022-09-17T07:38:32;11.90;;;2.45;;
14268;SDS011;7218;51.480;7.006;2022-09-17T07:40:59;10.20;;;2.47;;
14268;SDS011;7218;51.480;7.006;2022-09-17T07:43:28;8.18;;;2.45;;
14268;SDS011;7218;51.480;7.006;2022-09-17T07:45:56;5.90;;;2.20;;
14268;SDS011;7218;51.480;7.006;2022-09-17T07:48:23;8.10;;;1.75;;
14268;SDS011;7218;51.480;7.006;2022-09-17T07:50:50;4.57;;;1.52;;
14268;SDS011;7218;51.480;7.006;2022-09-17T07:53:20;9.15;;;2.20;;
14268;SDS011;7218;51.480;7.006;2022-09-17T07:55:52;7.57;;;1.90;;
14268;SDS011;7218;51.480;7.006;2022-09-17T07:58:19;5.13;;;1.92;;
14268;SDS011;7218;51.480;7.006;2022-09-17T08:00:46;9.07;;;2.20;;
14268;SDS011;7218;51.480;7.006;2022-09-17T08:03:14;7.95;;;2.00;;
14268;SDS011;7218;51.480;7.006;2022-09-17T08:05:40;5.47;;;1.58;;
14268;SDS011;7218;51.480;7.006;2022-09-17T08:08:07;6.88;;;1.60;;
14268;SDS011;7218;51.480;7.006;2022-09-17T08:10:33;4.43;;;1.20;;
14268;SDS011;7218;51.480;7.006;2022-09-17T08:13:01;3.92;;;1.35;;
14268;SDS011;7218;51.480;7.006;2022-09-17T08:15:27;4.07;;;1.40;;
14268;SDS011;7218;51.480;7.006;2022-09-17T08:17:54;5.43;;;1.80;;
14268;SDS011;7218;51.480;7.006;2022-09-17T08:20:20;6.18;;;1.50;;
14268;SDS011;7218;51.480;7.006;2022-09-17T08:22:48;6.55;;;1.50;;
14268;SDS011;7218;51.480;7.006;2022-09-17T08:25:14;5.25;;;1.63;;
14268;SDS011;7218;51.480;7.006;2022-09-17T08:27:41;5.97;;;1.67;;
14268;SDS011;7218;51.480;7.006;2022-09-17T08:30:10;5.55;;;1.63;;
14268;SDS011;7218;51.480;7.006;2022-09-17T08:32:36;6.93;;;1.73;;
14268;SDS011;7218;51.480;7.006;2022-09-17T08:35:03;6.20;;;1.60;;
14268;SDS011;7218;51.480;7.006;2022-09-17T08:37:30;11.15;;;2.28;;
14268;SDS011;7218;51.480;7.006;2022-09-17T08:39:56;6.60;;;1.60;;
14268;SDS011;7218;51.480;7.006;2022-09-17T08:42:25;7.90;;;1.60;;
14268;SDS011;7218;51.480;7.006;2022-09-17T08:44:56;7.18;;;1.55;;
14268;SDS011;7218;51.480;7.006;2022-09-17T08:47:27;7.97;;;2.20;;
14268;SDS011;7218;51.480;7.006;2022-09-17T08:49:56;6.20;;;1.83;;
14268;SDS011;7218;51.480;7.006;2022-09-17T08:52:31;4.57;;;1.48;;
14268;SDS011;7218;51.480;7.006;2022-09-17T08:55:14;6.22;;;1.35;;
14268;SDS011;7218;51.480;7.006;2022-09-17T08:57:55;5.30;;;1.50;;
14268;SDS011;7218;51.480;7.006;2022-09-17T09:00:49;6.60;;;1.60;;
14268;SDS011;7218;51.480;7.006;2022-09-17T09:03:27;4.90;;;1.75;;
14268;SDS011;7218;51.480;7.006;2022-09-17T09:06:04;3.45;;;1.17;;
14268;SDS011;7218;51.480;7.006;2022-09-17T09:08:32;10.05;;;1.58;;
14268;SDS011;7218;51.480;7.006;2022-09-17T09:11:02;5.95;;;1.30;;
14268;SDS011;7218;51.480;7.006;2022-09-17T09:13:30;4.63;;;1.40;;
14268;SDS011;7218;51.480;7.006;2022-09-17T09:16:02;2.45;;;1.02;;
14268;SDS011;7218;51.480;7.006;2022-09-17T09:18:34;5.25;;;1.30;;
14268;SDS011;7218;51.480;7.006;2022-09-17T09:21:07;3.17;;;1.13;;
14268;SDS011;7218;51.480;7.006;2022-09-17T09:23:44;5.88;;;1.35;;
14268;SDS011;7218;51.480;7.006;2022-09-17T09:26:18;4.75;;;1.48;;
14268;SDS011;7218;51.480;7.006;2022-09-17T09:28:52;4.63;;;1.30;;
14268;SDS011;7218;51.480;7.006;2022-09-17T09:31:41;6.10;;;1.25;;
14268;SDS011;7218;51.480;7.006;2022-09-17T09:34:17;3.72;;;1.15;;
14268;SDS011;7218;51.480;7.006;2022-09-17T09:36:44;2.45;;;0.90;;
14268;SDS011;7218;51.480;7.006;2022-09-17T09:39:13;5.25;;;1.10;;
14268;SDS011;7218;51.480;7.006;2022-09-17T09:41:43;4.68;;;1.40;;
14268;SDS011;7218;51.480;7.006;2022-09-17T09:44:14;4.32;;;1.10;;
14268;SDS011;7218;51.480;7.006;2022-09-17T09:46:50;3.63;;;0.70;;
14268;SDS011;7218;51.480;7.006;2022-09-17T09:49:38;5.75;;;1.15;;
14268;SDS011;7218;51.480;7.006;2022-09-17T09:52:18;4.20;;;1.20;;
14268;SDS011;7218;51.480;7.006;2022-09-17T09:54:59;3.60;;;1.00;;
14268;SDS011;7218;51.480;7.006;2022-09-17T09:57:38;6.10;;;1.38;;
14268;SDS011;7218;51.480;7.006;2022-09-17T10:00:20;3.25;;;1.10;;
14268;SDS011;7218;51.480;7.006;2022-09-17T10:02:51;3.00;;;1.17;;
14268;SDS011;7218;51.480;7.006;2022-09-17T10:05:23;4.47;;;1.30;;
14268;SDS011;7218;51.480;7.006;2022-09-17T10:07:49;4.30;;;1.20;;
14268;SDS011;7218;51.480;7.006;2022-09-17T10:10:16;4.72;;;1.13;;
14268;SDS011;7218;51.480;7.006;2022-09-17T10:12:42;6.30;;;2.03;;
14268;SDS011;7218;51.480;7.006;2022-09-17T10:15:25;6.50;;;1.30;;
14268;SDS011;7218;51.480;7.006;2022-09-17T10:18:13;3.33;;;1.30;;
14268;SDS011;7218;51.480;7.006;2022-09-17T10:20:53;2.90;;;1.10;;
14268;SDS011;7218;51.480;7.006;2022-09-17T10:23:21;3.85;;;1.00;;
14268;SDS011;7218;51.480;7.006;2022-09-17T10:25:50;3.80;;;1.20;;
14268;SDS011;7218;51.480;7.006;2022-09-17T10:28:27;3.97;;;1.20;;
14268;SDS011;7218;51.480;7.006;2022-09-17T10:30:58;3.83;;;1.08;;
14268;SDS011;7218;51.480;7.006;2022-09-17T10:33:26;5.30;;;1.27;;
14268;SDS011;7218;51.480;7.006;2022-09-17T10:35:56;3.72;;;1.10;;
14268;SDS011;7218;51.480;7.006;2022-09-17T10:38:30;4.72;;;1.40;;
14268;SDS011;7218;51.480;7.006;2022-09-17T10:41:08;2.45;;;1.02;;
14268;SDS011;7218;51.480;7.006;2022-09-17T10:43:37;2.50;;;1.33;;
14268;SDS011;7218;51.480;7.006;2022-09-17T10:46:04;3.40;;;1.20;;
14268;SDS011;7218;51.480;7.006;2022-09-17T10:48:36;4.00;;;1.08;;
14268;SDS011;7218;51.480;7.006;2022-09-17T10:51:08;3.75;;;1.20;;
14268;SDS011;7218;51.480;7.006;2022-09-17T10:53:37;4.53;;;1.23;;
14268;SDS011;7218;51.480;7.006;2022-09-17T10:56:21;3.50;;;1.20;;
14268;SDS011;7218;51.480;7.006;2022-09-17T10:58:55;3.30;;;1.10;;
14268;SDS011;7218;51.480;7.006;2022-09-17T11:01:31;4.45;;;1.27;;
14268;SDS011;7218;51.480;7.006;2022-09-17T11:04:19;5.85;;;1.58;;
14268;SDS011;7218;51.480;7.006;2022-09-17T11:06:57;7.90;;;1.45;;
14268;SDS011;7218;51.480;7.006;2022-09-17T11:09:39;6.30;;;2.10;;
14268;SDS011;7218;51.480;7.006;2022-09-17T11:15:16;4.93;;;1.30;;
14268;SDS011;7218;51.480;7.006;2022-09-17T11:18:01;3.25;;;1.10;;
14268;SDS011;7218;51.480;7.006;2022-09-17T11:20:44;3.47;;;0.93;;
14268;SDS011;7218;51.480;7.006;2022-09-17T11:23:26;3.80;;;0.93;;
14268;SDS011;7218;51.480;7.006;2022-09-17T11:26:04;1.42;;;0.82;;
14268;SDS011;7218;51.480;7.006;2022-09-17T11:28:43;1.98;;;0.93;;
14268;SDS011;7218;51.480;7.006;2022-09-17T11:31:25;2.42;;;1.20;;
14268;SDS011;7218;51.480;7.006;2022-09-17T11:34:03;3.00;;;0.82;;
14268;SDS011;7218;51.480;7.006;2022-09-17T11:36:45;1.42;;;0.85;;
14268;SDS011;7218;51.480;7.006;2022-09-17T11:39:21;2.30;;;0.85;;
14268;SDS011;7218;51.480;7.006;2022-09-17T11:41:52;2.13;;;0.73;;
14268;SDS011;7218;51.480;7.006;2022-09-17T11:44:22;3.05;;;0.90;;
14268;SDS011;7218;51.480;7.006;2022-09-17T11:46:53;4.93;;;2.03;;
14268;SDS011;7218;51.480;7.006;2022-09-17T11:49:25;12.38;;;5.95;;
14268;SDS011;7218;51.480;7.006;2022-09-17T11:52:00;7.28;;;3.55;;
14268;SDS011;7218;51.480;7.006;2022-09-17T11:54:34;12.68;;;4.97;;
14268;SDS011;7218;51.480;7.006;2022-09-17T11:57:06;3.30;;;1.40;;
14268;SDS011;7218;51.480;7.006;2022-09-17T11:59:39;2.58;;;1.50;;
14268;SDS011;7218;51.480;7.006;2022-09-17T12:02:13;2.15;;;1.52;;
14268;SDS011;7218;51.480;7.006;2022-09-17T12:04:46;3.08;;;1.10;;
14268;SDS011;7218;51.480;7.006;2022-09-17T12:07:27;6.43;;;1.35;;
14268;SDS011;7218;51.480;7.006;2022-09-17T12:10:06;2.80;;;1.80;;
14268;SDS011;7218;51.480;7.006;2022-09-17T12:12:46;3.22;;;1.20;;
14268;SDS011;7218;51.480;7.006;2022-09-17T12:15:20;3.85;;;1.40;;
14268;SDS011;7218;51.480;7.006;2022-09-17T12:17:51;3.03;;;1.30;;
14268;SDS011;7218;51.480;7.006;2022-09-17T12:20:23;2.35;;;1.17;;
14268;SDS011;7218;51.480;7.006;2022-09-17T12:22:55;3.70;;;1.35;;
14268;SDS011;7218;51.480;7.006;2022-09-17T12:25:27;4.15;;;1.60;;
14268;SDS011;7218;51.480;7.006;2022-09-17T12:27:58;3.47;;;1.15;;
14268;SDS011;7218;51.480;7.006;2022-09-17T12:30:31;2.55;;;1.13;;
14268;SDS011;7218;51.480;7.006;2022-09-17T12:33:18;3.38;;;1.33;;
14268;SDS011;7218;51.480;7.006;2022-09-17T12:35:54;6.53;;;2.10;;
14268;SDS011;7218;51.480;7.006;2022-09-17T12:38:43;2.30;;;1.27;;
14268;SDS011;7218;51.480;7.006;2022-09-17T12:41:19;7.47;;;3.05;;
14268;SDS011;7218;51.480;7.006;2022-09-17T12:43:59;4.57;;;2.03;;
14268;SDS011;7218;51.480;7.006;2022-09-17T12:46:45;3.63;;;1.25;;
14268;SDS011;7218;51.480;7.006;2022-09-17T12:52:26;4.00;;;1.20;;
14268;SDS011;7218;51.480;7.006;2022-09-17T12:57:59;3.15;;;1.63;;
14268;SDS011;7218;51.480;7.006;2022-09-17T13:00:36;2.92;;;1.80;;
14268;SDS011;7218;51.480;7.006;2022-09-17T13:03:11;1.45;;;0.90;;
14268;SDS011;7218;51.480;7.006;2022-09-17T13:05:49;4.25;;;1.80;;
14268;SDS011;7218;51.480;7.006;2022-09-17T13:08:37;3.92;;;1.05;;
14268;SDS011;7218;51.480;7.006;2022-09-17T13:11:25;1.58;;;1.02;;
14268;SDS011;7218;51.480;7.006;2022-09-17T13:14:09;2.50;;;1.35;;
14268;SDS011;7218;51.480;7.006;2022-09-17T13:16:44;2.75;;;0.98;;
14268;SDS011;7218;51.480;7.006;2022-09-17T13:19:19;3.15;;;1.10;;
14268;SDS011;7218;51.480;7.006;2022-09-17T13:21:58;3.47;;;1.10;;
14268;SDS011;7218;51.480;7.006;2022-09-17T13:24:27;3.70;;;1.10;;
14268;SDS011;7218;51.480;7.006;2022-09-17T13:26:55;3.28;;;1.10;;
14268;SDS011;7218;51.480;7.006;2022-09-17T13:38:12;2.83;;;1.17;;
14268;SDS011;7218;51.480;7.006;2022-09-17T13:40:39;4.25;;;1.20;;
14268;SDS011;7218;51.480;7.006;2022-09-17T13:43:07;7.13;;;2.15;;
14268;SDS011;7218;51.480;7.006;2022-09-17T13:48:35;4.50;;;1.40;;
14268;SDS011;7218;51.480;7.006;2022-09-17T13:54:10;3.88;;;1.00;;
14268;SDS011;7218;51.480;7.006;2022-09-17T13:56:39;5.38;;;0.90;;
14268;SDS011;7218;51.480;7.006;2022-09-17T13:59:10;3.00;;;0.98;;
14268;SDS011;7218;51.480;7.006;2022-09-17T14:05:21;2.50;;;1.20;;
14268;SDS011;7218;51.480;7.006;2022-09-17T14:08:06;3.63;;;1.70;;
14268;SDS011;7218;51.480;7.006;2022-09-17T14:10:56;8.18;;;4.05;;
14268;SDS011;7218;51.480;7.006;2022-09-17T14:13:32;6.80;;;3.85;;
14268;SDS011;7218;51.480;7.006;2022-09-17T14:19:31;3.53;;;2.05;;
14268;SDS011;7218;51.480;7.006;2022-09-17T14:22:09;4.65;;;2.03;;
14268;SDS011;7218;51.480;7.006;2022-09-17T14:24:45;2.95;;;1.10;;
14268;SDS011;7218;51.480;7.006;2022-09-17T14:27:20;3.67;;;1.58;;
14268;SDS011;7218;51.480;7.006;2022-09-17T14:30:04;4.68;;;1.60;;
14268;SDS011;7218;51.480;7.006;2022-09-17T14:32:38;6.75;;;3.90;;
14268;SDS011;7218;51.480;7.006;2022-09-17T14:35:13;3.95;;;2.90;;
14268;SDS011;7218;51.480;7.006;2022-09-17T14:37:43;5.65;;;2.88;;
14268;SDS011;7218;51.480;7.006;2022-09-17T14:40:13;7.18;;;3.63;;
14268;SDS011;7218;51.480;7.006;2022-09-17T14:42:43;6.07;;;1.70;;
14268;SDS011;7218;51.480;7.006;2022-09-17T14:45:13;4.25;;;2.30;;
14268;SDS011;7218;51.480;7.006;2022-09-17T14:47:42;10.10;;;4.38;;
14268;SDS011;7218;51.480;7.006;2022-09-17T14:50:21;4.60;;;2.25;;
14268;SDS011;7218;51.480;7.006;2022-09-17T14:52:50;5.22;;;1.95;;
14268;SDS011;7218;51.480;7.006;2022-09-17T14:55:19;2.63;;;1.55;;
14268;SDS011;7218;51.480;7.006;2022-09-17T14:57:48;5.65;;;2.20;;
14268;SDS011;7218;51.480;7.006;2022-09-17T15:00:19;6.50;;;1.70;;
14268;SDS011;7218;51.480;7.006;2022-09-17T15:02:51;6.68;;;2.20;;
14268;SDS011;7218;51.480;7.006;2022-09-17T15:05:24;3.70;;;1.15;;
14268;SDS011;7218;51.480;7.006;2022-09-17T15:08:05;5.90;;;1.42;;
14268;SDS011;7218;51.480;7.006;2022-09-17T15:10:38;4.45;;;1.33;;
14268;SDS011;7218;51.480;7.006;2022-09-17T15:13:12;3.95;;;1.38;;
14268;SDS011;7218;51.480;7.006;2022-09-17T15:15:54;4.65;;;1.70;;
14268;SDS011;7218;51.480;7.006;2022-09-17T15:18:28;3.72;;;1.40;;
14268;SDS011;7218;51.480;7.006;2022-09-17T15:20:57;3.85;;;1.20;;
14268;SDS011;7218;51.480;7.006;2022-09-17T15:23:28;4.80;;;1.30;;
14268;SDS011;7218;51.480;7.006;2022-09-17T15:25:57;3.75;;;1.00;;
14268;SDS011;7218;51.480;7.006;2022-09-17T15:28:27;5.70;;;1.30;;
14268;SDS011;7218;51.480;7.006;2022-09-17T15:30:56;2.58;;;1.00;;
14268;SDS011;7218;51.480;7.006;2022-09-17T15:33:23;5.38;;;1.20;;
14268;SDS011;7218;51.480;7.006;2022-09-17T15:35:58;4.35;;;1.10;;
14268;SDS011;7218;51.480;7.006;2022-09-17T15:38:29;6.93;;;1.83;;
14268;SDS011;7218;51.480;7.006;2022-09-17T15:41:09;4.63;;;1.30;;
14268;SDS011;7218;51.480;7.006;2022-09-17T15:43:44;4.18;;;1.10;;
14268;SDS011;7218;51.480;7.006;2022-09-17T15:51:22;4.60;;;1.02;;
14268;SDS011;7218;51.480;7.006;2022-09-17T15:53:53;1.30;;;0.73;;
14268;SDS011;7218;51.480;7.006;2022-09-17T15:56:22;2.15;;;0.80;;
14268;SDS011;7218;51.480;7.006;2022-09-17T15:58:57;4.32;;;1.05;;
14268;SDS011;7218;51.480;7.006;2022-09-17T16:04:23;2.95;;;1.00;;